sensor_id;sensor_type;location;lat;lon;timestamp;P1;durP1;ratioP1;P2;durP2;ratioP2
15716;SDS011;7960;50.908;4.204;2023-07-02T00:01:52;27.73;;;15.77;;
15716;SDS011;7960;50.908;4.204;2023-07-02T00:04:19;29.53;;;15.90;;
15716;SDS011;7960;50.908;4.204;2023-07-02T00:06:46;29.13;;;16.53;;
15716;SDS011;7960;50.908;4.204;2023-07-02T00:09:13;26.83;;;15.63;;
15716;SDS011;7960;50.908;4.204;2023-07-02T00:11:42;27.63;;;15.13;;
15716;SDS011;7960;50.908;4.204;2023-07-02T00:14:11;33.33;;;16.13;;
15716;SDS011;7960;50.908;4.204;2023-07-02T00:16:39;29.90;;;15.40;;
15716;SDS011;7960;50.908;4.204;2023-07-02T00:19:09;29.03;;;16.07;;
15716;SDS011;7960;50.908;4.204;2023-07-02T00:21:37;32.07;;;15.83;;
15716;SDS011;7960;50.908;4.204;2023-07-02T00:24:05;27.57;;;16.60;;
15716;SDS011;7960;50.908;4.204;2023-07-02T00:26:32;30.33;;;16.73;;
15716;SDS011;7960;50.908;4.204;2023-07-02T00:28:59;22.70;;;14.90;;
15716;SDS011;7960;50.908;4.204;2023-07-02T00:31:25;26.67;;;15.90;;
15716;SDS011;7960;50.908;4.204;2023-07-02T00:33:52;29.90;;;15.57;;
15716;SDS011;7960;50.908;4.204;2023-07-02T00:36:21;29.80;;;16.37;;
15716;SDS011;7960;50.908;4.204;2023-07-02T00:38:48;33.10;;;16.57;;
15716;SDS011;7960;50.908;4.204;2023-07-02T00:41:15;28.63;;;17.03;;
15716;SDS011;7960;50.908;4.204;2023-07-02T00:43:42;28.57;;;16.50;;
15716;SDS011;7960;50.908;4.204;2023-07-02T00:46:11;27.17;;;16.03;;
15716;SDS011;7960;50.908;4.204;2023-07-02T00:48:43;28.20;;;16.70;;
15716;SDS011;7960;50.908;4.204;2023-07-02T00:51:10;30.17;;;18.07;;
15716;SDS011;7960;50.908;4.204;2023-07-02T00:53:41;30.27;;;16.50;;
15716;SDS011;7960;50.908;4.204;2023-07-02T00:56:10;28.27;;;16.93;;
15716;SDS011;7960;50.908;4.204;2023-07-02T00:58:40;26.03;;;15.97;;
15716;SDS011;7960;50.908;4.204;2023-07-02T01:01:14;35.47;;;17.70;;
15716;SDS011;7960;50.908;4.204;2023-07-02T01:03:51;35.20;;;16.57;;
15716;SDS011;7960;50.908;4.204;2023-07-02T01:06:22;33.37;;;17.73;;
15716;SDS011;7960;50.908;4.204;2023-07-02T01:08:53;30.30;;;16.90;;
15716;SDS011;7960;50.908;4.204;2023-07-02T01:11:21;31.37;;;17.87;;
15716;SDS011;7960;50.908;4.204;2023-07-02T01:13:51;31.10;;;17.27;;
15716;SDS011;7960;50.908;4.204;2023-07-02T01:16:21;29.07;;;16.93;;
15716;SDS011;7960;50.908;4.204;2023-07-02T01:18:48;30.77;;;16.93;;
15716;SDS011;7960;50.908;4.204;2023-07-02T01:21:20;31.50;;;17.63;;
15716;SDS011;7960;50.908;4.204;2023-07-02T01:23:49;29.17;;;17.17;;
15716;SDS011;7960;50.908;4.204;2023-07-02T01:26:16;30.73;;;18.53;;
15716;SDS011;7960;50.908;4.204;2023-07-02T01:28:43;30.60;;;18.00;;
15716;SDS011;7960;50.908;4.204;2023-07-02T01:31:10;30.80;;;17.87;;
15716;SDS011;7960;50.908;4.204;2023-07-02T01:33:37;29.63;;;18.30;;
15716;SDS011;7960;50.908;4.204;2023-07-02T01:36:04;30.27;;;17.63;;
15716;SDS011;7960;50.908;4.204;2023-07-02T01:38:33;34.23;;;17.43;;
15716;SDS011;7960;50.908;4.204;2023-07-02T01:41:00;31.57;;;18.07;;
15716;SDS011;7960;50.908;4.204;2023-07-02T01:43:26;28.70;;;17.80;;
15716;SDS011;7960;50.908;4.204;2023-07-02T01:45:53;36.03;;;17.57;;
15716;SDS011;7960;50.908;4.204;2023-07-02T01:48:21;34.13;;;19.00;;
15716;SDS011;7960;50.908;4.204;2023-07-02T01:50:47;35.27;;;18.77;;
15716;SDS011;7960;50.908;4.204;2023-07-02T01:53:14;34.63;;;19.03;;
15716;SDS011;7960;50.908;4.204;2023-07-02T01:55:42;30.47;;;18.23;;
15716;SDS011;7960;50.908;4.204;2023-07-02T01:58:09;36.57;;;18.70;;
15716;SDS011;7960;50.908;4.204;2023-07-02T02:00:36;37.33;;;19.57;;
15716;SDS011;7960;50.908;4.204;2023-07-02T02:03:04;31.53;;;18.60;;
15716;SDS011;7960;50.908;4.204;2023-07-02T02:05:31;36.43;;;18.67;;
15716;SDS011;7960;50.908;4.204;2023-07-02T02:07:57;36.50;;;18.37;;
15716;SDS011;7960;50.908;4.204;2023-07-02T02:10:24;34.93;;;19.03;;
15716;SDS011;7960;50.908;4.204;2023-07-02T02:12:52;32.57;;;18.37;;
15716;SDS011;7960;50.908;4.204;2023-07-02T02:15:19;37.13;;;19.23;;
15716;SDS011;7960;50.908;4.204;2023-07-02T02:17:46;38.10;;;18.93;;
15716;SDS011;7960;50.908;4.204;2023-07-02T02:20:13;37.43;;;19.07;;
15716;SDS011;7960;50.908;4.204;2023-07-02T02:22:40;42.80;;;19.90;;
15716;SDS011;7960;50.908;4.204;2023-07-02T02:25:07;35.47;;;19.50;;
15716;SDS011;7960;50.908;4.204;2023-07-02T02:27:34;35.93;;;20.10;;
15716;SDS011;7960;50.908;4.204;2023-07-02T02:30:03;31.63;;;18.53;;
15716;SDS011;7960;50.908;4.204;2023-07-02T02:32:30;34.60;;;19.50;;
15716;SDS011;7960;50.908;4.204;2023-07-02T02:34:57;35.73;;;19.67;;
15716;SDS011;7960;50.908;4.204;2023-07-02T02:37:24;35.23;;;19.30;;
15716;SDS011;7960;50.908;4.204;2023-07-02T02:39:51;37.73;;;19.77;;
15716;SDS011;7960;50.908;4.204;2023-07-02T02:42:18;39.83;;;19.13;;
15716;SDS011;7960;50.908;4.204;2023-07-02T02:44:44;35.47;;;19.70;;
15716;SDS011;7960;50.908;4.204;2023-07-02T02:47:13;39.30;;;19.93;;
15716;SDS011;7960;50.908;4.204;2023-07-02T02:49:39;38.93;;;20.50;;
15716;SDS011;7960;50.908;4.204;2023-07-02T02:52:06;34.70;;;19.90;;
15716;SDS011;7960;50.908;4.204;2023-07-02T02:54:33;38.30;;;19.50;;
15716;SDS011;7960;50.908;4.204;2023-07-02T02:57:00;41.57;;;19.70;;
15716;SDS011;7960;50.908;4.204;2023-07-02T02:59:27;42.77;;;20.83;;
15716;SDS011;7960;50.908;4.204;2023-07-02T03:01:54;37.13;;;19.63;;
15716;SDS011;7960;50.908;4.204;2023-07-02T03:04:22;42.43;;;20.70;;
15716;SDS011;7960;50.908;4.204;2023-07-02T03:06:50;39.23;;;20.00;;
15716;SDS011;7960;50.908;4.204;2023-07-02T03:09:17;42.90;;;21.33;;
15716;SDS011;7960;50.908;4.204;2023-07-02T03:11:45;38.63;;;20.90;;
15716;SDS011;7960;50.908;4.204;2023-07-02T03:14:12;38.67;;;20.27;;
15716;SDS011;7960;50.908;4.204;2023-07-02T03:16:39;38.80;;;19.67;;
15716;SDS011;7960;50.908;4.204;2023-07-02T03:19:07;39.00;;;19.97;;
15716;SDS011;7960;50.908;4.204;2023-07-02T03:21:35;38.57;;;20.17;;
15716;SDS011;7960;50.908;4.204;2023-07-02T03:24:02;44.00;;;20.63;;
15716;SDS011;7960;50.908;4.204;2023-07-02T03:26:28;36.50;;;19.70;;
15716;SDS011;7960;50.908;4.204;2023-07-02T03:28:55;36.23;;;19.43;;
15716;SDS011;7960;50.908;4.204;2023-07-02T03:31:22;40.23;;;21.00;;
15716;SDS011;7960;50.908;4.204;2023-07-02T03:33:49;46.20;;;22.03;;
15716;SDS011;7960;50.908;4.204;2023-07-02T03:36:16;41.97;;;20.83;;
15716;SDS011;7960;50.908;4.204;2023-07-02T03:38:44;34.37;;;19.40;;
15716;SDS011;7960;50.908;4.204;2023-07-02T03:41:11;40.03;;;21.23;;
15716;SDS011;7960;50.908;4.204;2023-07-02T03:43:37;38.27;;;20.30;;
15716;SDS011;7960;50.908;4.204;2023-07-02T03:46:04;47.30;;;21.63;;
15716;SDS011;7960;50.908;4.204;2023-07-02T03:48:31;44.93;;;21.07;;
15716;SDS011;7960;50.908;4.204;2023-07-02T03:50:58;41.93;;;19.87;;
15716;SDS011;7960;50.908;4.204;2023-07-02T03:53:25;42.23;;;21.23;;
15716;SDS011;7960;50.908;4.204;2023-07-02T03:55:53;38.77;;;20.90;;
15716;SDS011;7960;50.908;4.204;2023-07-02T03:58:19;38.63;;;21.40;;
15716;SDS011;7960;50.908;4.204;2023-07-02T04:00:46;42.00;;;21.60;;
15716;SDS011;7960;50.908;4.204;2023-07-02T04:03:14;38.10;;;20.63;;
15716;SDS011;7960;50.908;4.204;2023-07-02T04:05:42;42.80;;;22.60;;
15716;SDS011;7960;50.908;4.204;2023-07-02T04:08:09;38.33;;;21.27;;
15716;SDS011;7960;50.908;4.204;2023-07-02T04:10:36;49.43;;;22.70;;
15716;SDS011;7960;50.908;4.204;2023-07-02T04:13:04;35.90;;;21.47;;
15716;SDS011;7960;50.908;4.204;2023-07-02T04:15:31;45.83;;;20.90;;
15716;SDS011;7960;50.908;4.204;2023-07-02T04:17:58;43.70;;;20.63;;
15716;SDS011;7960;50.908;4.204;2023-07-02T04:20:25;41.13;;;21.50;;
15716;SDS011;7960;50.908;4.204;2023-07-02T04:22:53;36.97;;;22.07;;
15716;SDS011;7960;50.908;4.204;2023-07-02T04:25:20;44.63;;;20.63;;
15716;SDS011;7960;50.908;4.204;2023-07-02T04:27:47;45.53;;;22.33;;
15716;SDS011;7960;50.908;4.204;2023-07-02T04:30:15;46.77;;;22.73;;
15716;SDS011;7960;50.908;4.204;2023-07-02T04:32:42;38.97;;;22.30;;
15716;SDS011;7960;50.908;4.204;2023-07-02T04:35:09;42.67;;;21.20;;
15716;SDS011;7960;50.908;4.204;2023-07-02T04:37:37;41.80;;;23.37;;
15716;SDS011;7960;50.908;4.204;2023-07-02T04:40:04;45.43;;;22.03;;
15716;SDS011;7960;50.908;4.204;2023-07-02T04:42:34;43.23;;;22.83;;
15716;SDS011;7960;50.908;4.204;2023-07-02T04:45:02;40.50;;;22.03;;
15716;SDS011;7960;50.908;4.204;2023-07-02T04:47:31;48.87;;;24.03;;
15716;SDS011;7960;50.908;4.204;2023-07-02T04:49:58;44.67;;;22.70;;
15716;SDS011;7960;50.908;4.204;2023-07-02T04:52:25;45.57;;;23.37;;
15716;SDS011;7960;50.908;4.204;2023-07-02T04:54:52;46.07;;;23.50;;
15716;SDS011;7960;50.908;4.204;2023-07-02T04:57:20;45.60;;;23.57;;
15716;SDS011;7960;50.908;4.204;2023-07-02T04:59:47;44.43;;;22.87;;
15716;SDS011;7960;50.908;4.204;2023-07-02T05:02:14;44.27;;;22.93;;
15716;SDS011;7960;50.908;4.204;2023-07-02T05:04:42;46.10;;;23.40;;
15716;SDS011;7960;50.908;4.204;2023-07-02T05:07:09;46.63;;;24.63;;
15716;SDS011;7960;50.908;4.204;2023-07-02T05:09:36;52.67;;;24.50;;
15716;SDS011;7960;50.908;4.204;2023-07-02T05:12:03;46.13;;;23.67;;
15716;SDS011;7960;50.908;4.204;2023-07-02T05:14:30;46.70;;;24.60;;
15716;SDS011;7960;50.908;4.204;2023-07-02T05:16:57;50.37;;;25.03;;
15716;SDS011;7960;50.908;4.204;2023-07-02T05:19:24;46.83;;;25.67;;
15716;SDS011;7960;50.908;4.204;2023-07-02T05:21:52;48.47;;;23.73;;
15716;SDS011;7960;50.908;4.204;2023-07-02T05:24:19;47.17;;;24.57;;
15716;SDS011;7960;50.908;4.204;2023-07-02T05:26:45;45.90;;;25.23;;
15716;SDS011;7960;50.908;4.204;2023-07-02T05:29:12;49.90;;;24.00;;
15716;SDS011;7960;50.908;4.204;2023-07-02T05:31:40;56.70;;;24.73;;
15716;SDS011;7960;50.908;4.204;2023-07-02T05:34:07;49.57;;;26.00;;
15716;SDS011;7960;50.908;4.204;2023-07-02T05:36:34;47.23;;;25.17;;
15716;SDS011;7960;50.908;4.204;2023-07-02T05:39:02;43.97;;;24.43;;
15716;SDS011;7960;50.908;4.204;2023-07-02T05:41:29;50.10;;;25.60;;
15716;SDS011;7960;50.908;4.204;2023-07-02T05:43:56;47.93;;;25.27;;
15716;SDS011;7960;50.908;4.204;2023-07-02T05:46:23;47.13;;;24.53;;
15716;SDS011;7960;50.908;4.204;2023-07-02T05:48:50;43.20;;;24.97;;
15716;SDS011;7960;50.908;4.204;2023-07-02T05:51:19;48.07;;;24.83;;
15716;SDS011;7960;50.908;4.204;2023-07-02T05:53:46;48.27;;;24.77;;
15716;SDS011;7960;50.908;4.204;2023-07-02T05:56:15;47.83;;;24.47;;
15716;SDS011;7960;50.908;4.204;2023-07-02T05:58:42;51.60;;;23.57;;
15716;SDS011;7960;50.908;4.204;2023-07-02T06:01:09;48.10;;;24.50;;
15716;SDS011;7960;50.908;4.204;2023-07-02T06:03:36;47.83;;;24.90;;
15716;SDS011;7960;50.908;4.204;2023-07-02T06:06:03;48.33;;;24.27;;
15716;SDS011;7960;50.908;4.204;2023-07-02T06:08:30;47.57;;;24.13;;
15716;SDS011;7960;50.908;4.204;2023-07-02T06:10:56;54.70;;;23.90;;
15716;SDS011;7960;50.908;4.204;2023-07-02T06:13:25;42.50;;;23.23;;
15716;SDS011;7960;50.908;4.204;2023-07-02T06:15:51;48.03;;;24.03;;
15716;SDS011;7960;50.908;4.204;2023-07-02T06:18:18;48.90;;;24.00;;
15716;SDS011;7960;50.908;4.204;2023-07-02T06:20:45;47.13;;;23.33;;
15716;SDS011;7960;50.908;4.204;2023-07-02T06:23:12;37.77;;;20.77;;
15716;SDS011;7960;50.908;4.204;2023-07-02T06:25:39;43.23;;;22.47;;
15716;SDS011;7960;50.908;4.204;2023-07-02T06:28:06;47.70;;;22.60;;
15716;SDS011;7960;50.908;4.204;2023-07-02T06:30:34;44.70;;;22.90;;
15716;SDS011;7960;50.908;4.204;2023-07-02T06:33:01;44.63;;;22.90;;
15716;SDS011;7960;50.908;4.204;2023-07-02T06:35:28;42.07;;;22.93;;
15716;SDS011;7960;50.908;4.204;2023-07-02T06:37:55;39.37;;;21.20;;
15716;SDS011;7960;50.908;4.204;2023-07-02T06:40:22;35.10;;;18.70;;
15716;SDS011;7960;50.908;4.204;2023-07-02T06:42:49;28.70;;;17.03;;
15716;SDS011;7960;50.908;4.204;2023-07-02T06:45:15;28.63;;;16.27;;
15716;SDS011;7960;50.908;4.204;2023-07-02T06:47:43;27.97;;;14.17;;
15716;SDS011;7960;50.908;4.204;2023-07-02T06:50:10;27.43;;;14.33;;
15716;SDS011;7960;50.908;4.204;2023-07-02T06:52:37;28.77;;;13.90;;
15716;SDS011;7960;50.908;4.204;2023-07-02T06:55:04;28.37;;;13.77;;
15716;SDS011;7960;50.908;4.204;2023-07-02T06:57:31;24.07;;;13.60;;
15716;SDS011;7960;50.908;4.204;2023-07-02T06:59:58;25.07;;;12.80;;
15716;SDS011;7960;50.908;4.204;2023-07-02T07:02:25;25.63;;;12.60;;
15716;SDS011;7960;50.908;4.204;2023-07-02T07:04:54;23.93;;;12.13;;
15716;SDS011;7960;50.908;4.204;2023-07-02T07:07:20;24.30;;;11.60;;
15716;SDS011;7960;50.908;4.204;2023-07-02T07:09:47;22.90;;;12.60;;
15716;SDS011;7960;50.908;4.204;2023-07-02T07:12:14;24.07;;;11.50;;
15716;SDS011;7960;50.908;4.204;2023-07-02T07:14:41;24.00;;;11.13;;
15716;SDS011;7960;50.908;4.204;2023-07-02T07:17:08;18.87;;;10.23;;
15716;SDS011;7960;50.908;4.204;2023-07-02T07:19:35;23.53;;;11.23;;
15716;SDS011;7960;50.908;4.204;2023-07-02T07:22:03;18.53;;;10.77;;
15716;SDS011;7960;50.908;4.204;2023-07-02T07:24:30;18.07;;;10.53;;
15716;SDS011;7960;50.908;4.204;2023-07-02T07:26:57;20.80;;;11.43;;
15716;SDS011;7960;50.908;4.204;2023-07-02T07:29:24;19.27;;;10.50;;
15716;SDS011;7960;50.908;4.204;2023-07-02T07:31:51;18.13;;;9.67;;
15716;SDS011;7960;50.908;4.204;2023-07-02T07:34:17;17.47;;;9.57;;
15716;SDS011;7960;50.908;4.204;2023-07-02T07:36:44;16.70;;;10.40;;
15716;SDS011;7960;50.908;4.204;2023-07-02T07:39:12;18.23;;;9.83;;
15716;SDS011;7960;50.908;4.204;2023-07-02T07:41:39;20.00;;;10.37;;
15716;SDS011;7960;50.908;4.204;2023-07-02T07:44:06;19.07;;;10.57;;
15716;SDS011;7960;50.908;4.204;2023-07-02T07:46:33;19.47;;;10.37;;
15716;SDS011;7960;50.908;4.204;2023-07-02T07:48:59;18.10;;;10.30;;
15716;SDS011;7960;50.908;4.204;2023-07-02T07:51:27;20.17;;;10.33;;
15716;SDS011;7960;50.908;4.204;2023-07-02T07:53:54;20.03;;;9.93;;
15716;SDS011;7960;50.908;4.204;2023-07-02T07:56:22;18.50;;;9.87;;
15716;SDS011;7960;50.908;4.204;2023-07-02T07:58:49;17.10;;;9.73;;
15716;SDS011;7960;50.908;4.204;2023-07-02T08:01:16;18.97;;;9.87;;
15716;SDS011;7960;50.908;4.204;2023-07-02T08:03:43;19.20;;;9.87;;
15716;SDS011;7960;50.908;4.204;2023-07-02T08:06:09;20.30;;;10.13;;
15716;SDS011;7960;50.908;4.204;2023-07-02T08:08:36;19.03;;;9.37;;
15716;SDS011;7960;50.908;4.204;2023-07-02T08:11:03;16.77;;;9.10;;
15716;SDS011;7960;50.908;4.204;2023-07-02T08:13:31;18.80;;;9.70;;
15716;SDS011;7960;50.908;4.204;2023-07-02T08:15:58;17.93;;;9.20;;
15716;SDS011;7960;50.908;4.204;2023-07-02T08:18:25;18.50;;;10.23;;
15716;SDS011;7960;50.908;4.204;2023-07-02T08:20:52;17.47;;;9.93;;
15716;SDS011;7960;50.908;4.204;2023-07-02T08:23:19;18.47;;;9.83;;
15716;SDS011;7960;50.908;4.204;2023-07-02T08:25:46;22.67;;;10.67;;
15716;SDS011;7960;50.908;4.204;2023-07-02T08:28:12;15.97;;;10.03;;
15716;SDS011;7960;50.908;4.204;2023-07-02T08:30:41;25.23;;;11.17;;
15716;SDS011;7960;50.908;4.204;2023-07-02T08:33:07;18.70;;;10.50;;
15716;SDS011;7960;50.908;4.204;2023-07-02T08:35:34;24.03;;;11.73;;
15716;SDS011;7960;50.908;4.204;2023-07-02T08:38:02;19.33;;;10.30;;
15716;SDS011;7960;50.908;4.204;2023-07-02T08:40:29;17.97;;;10.57;;
15716;SDS011;7960;50.908;4.204;2023-07-02T08:42:56;20.10;;;10.60;;
15716;SDS011;7960;50.908;4.204;2023-07-02T08:45:23;19.93;;;10.37;;
15716;SDS011;7960;50.908;4.204;2023-07-02T08:47:52;19.83;;;10.80;;
15716;SDS011;7960;50.908;4.204;2023-07-02T08:50:21;20.30;;;10.83;;
15716;SDS011;7960;50.908;4.204;2023-07-02T08:52:48;20.17;;;10.17;;
15716;SDS011;7960;50.908;4.204;2023-07-02T08:55:15;17.80;;;11.20;;
15716;SDS011;7960;50.908;4.204;2023-07-02T08:57:42;22.33;;;11.53;;
15716;SDS011;7960;50.908;4.204;2023-07-02T09:00:19;24.27;;;12.43;;
15716;SDS011;7960;50.908;4.204;2023-07-02T09:02:46;20.83;;;11.83;;
15716;SDS011;7960;50.908;4.204;2023-07-02T09:05:14;21.47;;;12.37;;
15716;SDS011;7960;50.908;4.204;2023-07-02T09:07:45;21.17;;;12.17;;
15716;SDS011;7960;50.908;4.204;2023-07-02T09:10:12;23.10;;;12.10;;
15716;SDS011;7960;50.908;4.204;2023-07-02T09:12:51;22.23;;;12.17;;
15716;SDS011;7960;50.908;4.204;2023-07-02T09:15:34;21.47;;;12.47;;
15716;SDS011;7960;50.908;4.204;2023-07-02T09:18:01;24.30;;;11.93;;
15716;SDS011;7960;50.908;4.204;2023-07-02T09:20:33;21.43;;;11.60;;
15716;SDS011;7960;50.908;4.204;2023-07-02T09:23:00;24.23;;;11.63;;
15716;SDS011;7960;50.908;4.204;2023-07-02T09:25:33;20.63;;;11.80;;
15716;SDS011;7960;50.908;4.204;2023-07-02T09:28:00;21.73;;;11.93;;
15716;SDS011;7960;50.908;4.204;2023-07-02T09:30:27;20.27;;;11.90;;
15716;SDS011;7960;50.908;4.204;2023-07-02T09:32:54;18.87;;;11.43;;
15716;SDS011;7960;50.908;4.204;2023-07-02T09:35:31;23.93;;;11.90;;
15716;SDS011;7960;50.908;4.204;2023-07-02T09:38:00;19.50;;;11.73;;
15716;SDS011;7960;50.908;4.204;2023-07-02T09:40:26;21.73;;;11.30;;
15716;SDS011;7960;50.908;4.204;2023-07-02T09:42:54;20.40;;;11.10;;
15716;SDS011;7960;50.908;4.204;2023-07-02T09:45:22;21.20;;;10.93;;
15716;SDS011;7960;50.908;4.204;2023-07-02T09:47:49;23.43;;;11.60;;
15716;SDS011;7960;50.908;4.204;2023-07-02T09:50:18;19.90;;;11.50;;
15716;SDS011;7960;50.908;4.204;2023-07-02T09:52:47;24.47;;;10.77;;
15716;SDS011;7960;50.908;4.204;2023-07-02T09:55:15;21.13;;;11.47;;
15716;SDS011;7960;50.908;4.204;2023-07-02T09:57:43;26.30;;;11.00;;
15716;SDS011;7960;50.908;4.204;2023-07-02T10:00:13;20.87;;;11.23;;
15716;SDS011;7960;50.908;4.204;2023-07-02T10:02:41;17.90;;;10.90;;
15716;SDS011;7960;50.908;4.204;2023-07-02T10:05:08;23.43;;;12.40;;
15716;SDS011;7960;50.908;4.204;2023-07-02T10:07:35;23.33;;;10.60;;
15716;SDS011;7960;50.908;4.204;2023-07-02T10:10:03;22.30;;;10.60;;
15716;SDS011;7960;50.908;4.204;2023-07-02T10:12:31;20.70;;;11.60;;
15716;SDS011;7960;50.908;4.204;2023-07-02T10:14:58;26.23;;;12.30;;
15716;SDS011;7960;50.908;4.204;2023-07-02T10:17:26;19.33;;;11.10;;
15716;SDS011;7960;50.908;4.204;2023-07-02T10:19:56;21.20;;;11.50;;
15716;SDS011;7960;50.908;4.204;2023-07-02T10:22:23;18.33;;;10.10;;
15716;SDS011;7960;50.908;4.204;2023-07-02T10:24:51;26.23;;;11.63;;
15716;SDS011;7960;50.908;4.204;2023-07-02T10:27:20;22.83;;;11.13;;
15716;SDS011;7960;50.908;4.204;2023-07-02T10:29:59;17.83;;;10.27;;
15716;SDS011;7960;50.908;4.204;2023-07-02T10:32:26;23.00;;;11.63;;
15716;SDS011;7960;50.908;4.204;2023-07-02T10:34:54;20.20;;;10.37;;
15716;SDS011;7960;50.908;4.204;2023-07-02T10:37:21;20.63;;;10.90;;
15716;SDS011;7960;50.908;4.204;2023-07-02T10:39:48;23.27;;;10.43;;
15716;SDS011;7960;50.908;4.204;2023-07-02T10:42:17;26.27;;;11.83;;
15716;SDS011;7960;50.908;4.204;2023-07-02T10:44:48;19.47;;;10.87;;
15716;SDS011;7960;50.908;4.204;2023-07-02T10:47:16;21.27;;;11.07;;
15716;SDS011;7960;50.908;4.204;2023-07-02T10:49:43;21.93;;;11.20;;
15716;SDS011;7960;50.908;4.204;2023-07-02T10:52:10;19.63;;;11.13;;
15716;SDS011;7960;50.908;4.204;2023-07-02T10:54:40;18.80;;;11.43;;
15716;SDS011;7960;50.908;4.204;2023-07-02T10:57:08;22.87;;;10.97;;
15716;SDS011;7960;50.908;4.204;2023-07-02T10:59:36;26.33;;;11.93;;
15716;SDS011;7960;50.908;4.204;2023-07-02T11:02:05;20.47;;;11.43;;
15716;SDS011;7960;50.908;4.204;2023-07-02T11:04:32;20.87;;;10.80;;
15716;SDS011;7960;50.908;4.204;2023-07-02T11:06:59;22.50;;;12.10;;
15716;SDS011;7960;50.908;4.204;2023-07-02T11:09:26;16.80;;;11.00;;
15716;SDS011;7960;50.908;4.204;2023-07-02T11:11:54;21.83;;;10.83;;
15716;SDS011;7960;50.908;4.204;2023-07-02T11:14:28;22.40;;;10.97;;
15716;SDS011;7960;50.908;4.204;2023-07-02T11:16:56;16.93;;;10.33;;
15716;SDS011;7960;50.908;4.204;2023-07-02T11:19:25;19.30;;;10.87;;
15716;SDS011;7960;50.908;4.204;2023-07-02T11:21:52;18.17;;;10.73;;
15716;SDS011;7960;50.908;4.204;2023-07-02T11:24:27;23.07;;;10.93;;
15716;SDS011;7960;50.908;4.204;2023-07-02T11:26:55;20.73;;;11.27;;
15716;SDS011;7960;50.908;4.204;2023-07-02T11:29:22;16.77;;;10.63;;
15716;SDS011;7960;50.908;4.204;2023-07-02T11:31:49;17.27;;;10.90;;
15716;SDS011;7960;50.908;4.204;2023-07-02T11:34:16;21.93;;;11.20;;
15716;SDS011;7960;50.908;4.204;2023-07-02T11:36:45;18.93;;;10.93;;
15716;SDS011;7960;50.908;4.204;2023-07-02T11:39:12;15.87;;;10.67;;
15716;SDS011;7960;50.908;4.204;2023-07-02T11:41:41;18.97;;;11.00;;
15716;SDS011;7960;50.908;4.204;2023-07-02T11:44:09;19.63;;;10.87;;
15716;SDS011;7960;50.908;4.204;2023-07-02T11:46:36;20.23;;;10.90;;
15716;SDS011;7960;50.908;4.204;2023-07-02T11:49:03;19.20;;;10.13;;
15716;SDS011;7960;50.908;4.204;2023-07-02T11:51:33;18.00;;;9.67;;
15716;SDS011;7960;50.908;4.204;2023-07-02T11:54:02;17.03;;;10.47;;
15716;SDS011;7960;50.908;4.204;2023-07-02T11:56:30;20.57;;;10.37;;
15716;SDS011;7960;50.908;4.204;2023-07-02T11:58:57;17.83;;;9.67;;
15716;SDS011;7960;50.908;4.204;2023-07-02T12:01:23;18.77;;;10.10;;
15716;SDS011;7960;50.908;4.204;2023-07-02T12:03:50;19.07;;;10.63;;
15716;SDS011;7960;50.908;4.204;2023-07-02T12:06:17;18.47;;;9.33;;
15716;SDS011;7960;50.908;4.204;2023-07-02T12:08:44;18.80;;;9.47;;
15716;SDS011;7960;50.908;4.204;2023-07-02T12:11:12;17.00;;;9.03;;
15716;SDS011;7960;50.908;4.204;2023-07-02T12:13:40;17.70;;;9.57;;
15716;SDS011;7960;50.908;4.204;2023-07-02T12:16:07;15.87;;;8.83;;
15716;SDS011;7960;50.908;4.204;2023-07-02T12:18:34;18.00;;;9.50;;
15716;SDS011;7960;50.908;4.204;2023-07-02T12:21:01;18.53;;;9.80;;
15716;SDS011;7960;50.908;4.204;2023-07-02T12:23:28;15.80;;;8.80;;
15716;SDS011;7960;50.908;4.204;2023-07-02T12:25:55;16.00;;;8.73;;
15716;SDS011;7960;50.908;4.204;2023-07-02T12:28:23;17.80;;;9.33;;
15716;SDS011;7960;50.908;4.204;2023-07-02T12:30:50;17.10;;;9.63;;
15716;SDS011;7960;50.908;4.204;2023-07-02T12:33:17;15.90;;;9.30;;
15716;SDS011;7960;50.908;4.204;2023-07-02T12:35:44;16.43;;;9.13;;
15716;SDS011;7960;50.908;4.204;2023-07-02T12:38:12;15.57;;;8.60;;
15716;SDS011;7960;50.908;4.204;2023-07-02T12:40:39;13.73;;;8.13;;
15716;SDS011;7960;50.908;4.204;2023-07-02T12:43:06;13.13;;;8.30;;
15716;SDS011;7960;50.908;4.204;2023-07-02T12:45:34;15.27;;;8.90;;
15716;SDS011;7960;50.908;4.204;2023-07-02T12:48:01;15.20;;;8.67;;
15716;SDS011;7960;50.908;4.204;2023-07-02T12:50:28;13.40;;;8.23;;
15716;SDS011;7960;50.908;4.204;2023-07-02T12:52:55;16.33;;;9.43;;
15716;SDS011;7960;50.908;4.204;2023-07-02T12:55:21;17.00;;;8.43;;
15716;SDS011;7960;50.908;4.204;2023-07-02T12:57:48;15.93;;;8.37;;
15716;SDS011;7960;50.908;4.204;2023-07-02T13:00:15;18.50;;;8.77;;
15716;SDS011;7960;50.908;4.204;2023-07-02T13:02:44;14.33;;;8.13;;
15716;SDS011;7960;50.908;4.204;2023-07-02T13:05:12;15.67;;;9.17;;
15716;SDS011;7960;50.908;4.204;2023-07-02T13:07:39;14.37;;;8.60;;
15716;SDS011;7960;50.908;4.204;2023-07-02T13:10:06;15.77;;;8.70;;
15716;SDS011;7960;50.908;4.204;2023-07-02T13:12:33;17.90;;;9.43;;
15716;SDS011;7960;50.908;4.204;2023-07-02T13:15:00;13.83;;;8.33;;
15716;SDS011;7960;50.908;4.204;2023-07-02T13:17:27;20.40;;;8.60;;
15716;SDS011;7960;50.908;4.204;2023-07-02T13:19:55;16.03;;;9.00;;
15716;SDS011;7960;50.908;4.204;2023-07-02T13:22:22;13.30;;;8.10;;
15716;SDS011;7960;50.908;4.204;2023-07-02T13:24:49;14.97;;;8.00;;
15716;SDS011;7960;50.908;4.204;2023-07-02T13:27:16;14.73;;;8.47;;
15716;SDS011;7960;50.908;4.204;2023-07-02T13:29:44;14.30;;;8.23;;
15716;SDS011;7960;50.908;4.204;2023-07-02T13:32:11;15.17;;;8.63;;
15716;SDS011;7960;50.908;4.204;2023-07-02T13:34:38;14.60;;;9.00;;
15716;SDS011;7960;50.908;4.204;2023-07-02T13:37:06;14.10;;;8.07;;
15716;SDS011;7960;50.908;4.204;2023-07-02T13:39:34;15.37;;;8.23;;
15716;SDS011;7960;50.908;4.204;2023-07-02T13:42:01;13.47;;;8.37;;
15716;SDS011;7960;50.908;4.204;2023-07-02T13:44:28;15.80;;;8.13;;
15716;SDS011;7960;50.908;4.204;2023-07-02T13:46:55;17.20;;;8.23;;
15716;SDS011;7960;50.908;4.204;2023-07-02T13:49:21;18.20;;;8.80;;
15716;SDS011;7960;50.908;4.204;2023-07-02T13:51:48;14.40;;;8.20;;
15716;SDS011;7960;50.908;4.204;2023-07-02T13:54:17;13.67;;;7.80;;
15716;SDS011;7960;50.908;4.204;2023-07-02T13:56:45;14.87;;;8.03;;
15716;SDS011;7960;50.908;4.204;2023-07-02T13:59:13;12.67;;;7.50;;
15716;SDS011;7960;50.908;4.204;2023-07-02T14:01:41;15.17;;;8.30;;
15716;SDS011;7960;50.908;4.204;2023-07-02T14:04:08;14.97;;;7.47;;
15716;SDS011;7960;50.908;4.204;2023-07-02T14:06:36;12.23;;;7.90;;
15716;SDS011;7960;50.908;4.204;2023-07-02T14:09:03;12.57;;;7.70;;
15716;SDS011;7960;50.908;4.204;2023-07-02T14:11:31;13.87;;;7.77;;
15716;SDS011;7960;50.908;4.204;2023-07-02T14:13:59;12.90;;;7.33;;
15716;SDS011;7960;50.908;4.204;2023-07-02T14:16:27;13.30;;;8.20;;
15716;SDS011;7960;50.908;4.204;2023-07-02T14:18:54;13.10;;;7.53;;
15716;SDS011;7960;50.908;4.204;2023-07-02T14:21:20;11.87;;;7.33;;
15716;SDS011;7960;50.908;4.204;2023-07-02T14:23:47;12.47;;;7.13;;
15716;SDS011;7960;50.908;4.204;2023-07-02T14:26:14;16.83;;;7.63;;
15716;SDS011;7960;50.908;4.204;2023-07-02T14:28:41;13.13;;;7.67;;
15716;SDS011;7960;50.908;4.204;2023-07-02T14:31:08;14.77;;;8.10;;
15716;SDS011;7960;50.908;4.204;2023-07-02T14:33:37;16.10;;;7.90;;
15716;SDS011;7960;50.908;4.204;2023-07-02T14:36:04;11.90;;;7.07;;
15716;SDS011;7960;50.908;4.204;2023-07-02T14:38:32;11.93;;;7.03;;
15716;SDS011;7960;50.908;4.204;2023-07-02T14:40:59;13.40;;;7.23;;